sensor_id;sensor_type;location;lat;lon;timestamp;P1;durP1;ratioP1;P2;durP2;ratioP2
71298;SDS011;59083;47.974;21.722;2022-10-31T00:01:54;35.93;;;14.10;;
71298;SDS011;59083;47.974;21.722;2022-10-31T00:04:55;40.25;;;15.50;;
71298;SDS011;59083;47.974;21.722;2022-10-31T00:07:56;38.25;;;15.05;;
71298;SDS011;59083;47.974;21.722;2022-10-31T00:10:58;41.75;;;15.52;;
71298;SDS011;59083;47.974;21.722;2022-10-31T00:13:59;43.95;;;15.55;;
71298;SDS011;59083;47.974;21.722;2022-10-31T00:17:01;42.40;;;16.23;;
71298;SDS011;59083;47.974;21.722;2022-10-31T00:20:02;38.03;;;14.35;;
71298;SDS011;59083;47.974;21.722;2022-10-31T00:23:05;34.97;;;13.98;;
71298;SDS011;59083;47.974;21.722;2022-10-31T00:26:06;35.00;;;14.73;;
71298;SDS011;59083;47.974;21.722;2022-10-31T00:29:08;33.47;;;14.60;;
71298;SDS011;59083;47.974;21.722;2022-10-31T00:32:09;34.53;;;14.10;;
71298;SDS011;59083;47.974;21.722;2022-10-31T00:35:10;33.80;;;14.48;;
71298;SDS011;59083;47.974;21.722;2022-10-31T00:38:11;34.28;;;13.85;;
71298;SDS011;59083;47.974;21.722;2022-10-31T00:41:14;35.45;;;14.23;;
71298;SDS011;59083;47.974;21.722;2022-10-31T00:44:16;35.33;;;14.75;;
71298;SDS011;59083;47.974;21.722;2022-10-31T00:47:18;33.23;;;13.67;;
71298;SDS011;59083;47.974;21.722;2022-10-31T00:50:19;40.08;;;15.73;;
71298;SDS011;59083;47.974;21.722;2022-10-31T00:53:21;33.13;;;14.35;;
71298;SDS011;59083;47.974;21.722;2022-10-31T00:56:22;35.53;;;13.40;;
71298;SDS011;59083;47.974;21.722;2022-10-31T00:59:23;36.28;;;14.20;;
71298;SDS011;59083;47.974;21.722;2022-10-31T01:02:25;36.53;;;13.93;;
71298;SDS011;59083;47.974;21.722;2022-10-31T01:05:26;33.00;;;13.62;;
71298;SDS011;59083;47.974;21.722;2022-10-31T01:08:27;34.22;;;13.13;;
71298;SDS011;59083;47.974;21.722;2022-10-31T01:11:29;36.00;;;14.48;;
71298;SDS011;59083;47.974;21.722;2022-10-31T01:14:30;33.38;;;13.73;;
71298;SDS011;59083;47.974;21.722;2022-10-31T01:17:31;30.63;;;13.40;;
71298;SDS011;59083;47.974;21.722;2022-10-31T01:20:33;39.65;;;14.40;;
71298;SDS011;59083;47.974;21.722;2022-10-31T01:23:35;34.97;;;13.10;;
71298;SDS011;59083;47.974;21.722;2022-10-31T01:26:37;33.55;;;13.13;;
71298;SDS011;59083;47.974;21.722;2022-10-31T01:29:38;30.45;;;12.75;;
71298;SDS011;59083;47.974;21.722;2022-10-31T01:32:40;30.80;;;13.00;;
71298;SDS011;59083;47.974;21.722;2022-10-31T01:35:41;32.38;;;13.45;;
71298;SDS011;59083;47.974;21.722;2022-10-31T01:38:42;29.85;;;13.02;;
71298;SDS011;59083;47.974;21.722;2022-10-31T01:41:48;28.40;;;12.30;;
71298;SDS011;59083;47.974;21.722;2022-10-31T01:44:53;31.10;;;12.90;;
71298;SDS011;59083;47.974;21.722;2022-10-31T01:47:57;30.20;;;12.07;;
71298;SDS011;59083;47.974;21.722;2022-10-31T01:50:58;31.08;;;12.05;;
71298;SDS011;59083;47.974;21.722;2022-10-31T01:54:02;26.52;;;11.55;;
71298;SDS011;59083;47.974;21.722;2022-10-31T01:57:10;26.30;;;11.43;;
71298;SDS011;59083;47.974;21.722;2022-10-31T02:00:13;27.10;;;11.70;;
71298;SDS011;59083;47.974;21.722;2022-10-31T02:03:15;26.60;;;11.37;;
71298;SDS011;59083;47.974;21.722;2022-10-31T02:06:20;26.25;;;10.80;;
71298;SDS011;59083;47.974;21.722;2022-10-31T02:09:30;22.92;;;11.07;;
71298;SDS011;59083;47.974;21.722;2022-10-31T02:12:36;24.12;;;10.52;;
71298;SDS011;59083;47.974;21.722;2022-10-31T02:15:39;24.37;;;10.32;;
71298;SDS011;59083;47.974;21.722;2022-10-31T02:18:41;23.87;;;11.03;;
71298;SDS011;59083;47.974;21.722;2022-10-31T02:21:51;24.63;;;11.40;;
71298;SDS011;59083;47.974;21.722;2022-10-31T02:31:35;28.45;;;10.73;;
71298;SDS011;59083;47.974;21.722;2022-10-31T02:41:37;23.45;;;10.75;;
71298;SDS011;59083;47.974;21.722;2022-10-31T02:47:58;27.23;;;9.95;;
71298;SDS011;59083;47.974;21.722;2022-10-31T02:51:04;23.43;;;10.87;;
71298;SDS011;59083;47.974;21.722;2022-10-31T02:54:16;26.08;;;11.40;;
71298;SDS011;59083;47.974;21.722;2022-10-31T02:57:20;24.35;;;10.85;;
71298;SDS011;59083;47.974;21.722;2022-10-31T03:00:31;24.25;;;11.57;;
71298;SDS011;59083;47.974;21.722;2022-10-31T03:07:38;23.17;;;10.20;;
71298;SDS011;59083;47.974;21.722;2022-10-31T03:11:01;26.92;;;11.12;;
71298;SDS011;59083;47.974;21.722;2022-10-31T03:14:12;25.17;;;11.27;;
71298;SDS011;59083;47.974;21.722;2022-10-31T03:17:22;27.15;;;10.82;;
71298;SDS011;59083;47.974;21.722;2022-10-31T03:20:34;25.90;;;10.50;;
71298;SDS011;59083;47.974;21.722;2022-10-31T03:23:41;23.37;;;10.20;;
71298;SDS011;59083;47.974;21.722;2022-10-31T03:26:53;22.10;;;10.00;;
71298;SDS011;59083;47.974;21.722;2022-10-31T03:29:58;24.95;;;9.85;;
71298;SDS011;59083;47.974;21.722;2022-10-31T03:33:04;22.13;;;10.15;;
71298;SDS011;59083;47.974;21.722;2022-10-31T03:36:12;23.00;;;10.15;;
71298;SDS011;59083;47.974;21.722;2022-10-31T03:39:18;21.87;;;9.17;;
71298;SDS011;59083;47.974;21.722;2022-10-31T03:42:23;23.92;;;10.18;;
71298;SDS011;59083;47.974;21.722;2022-10-31T03:45:26;23.40;;;9.38;;
71298;SDS011;59083;47.974;21.722;2022-10-31T03:48:30;24.35;;;9.77;;
71298;SDS011;59083;47.974;21.722;2022-10-31T03:51:34;24.30;;;10.02;;
71298;SDS011;59083;47.974;21.722;2022-10-31T03:54:58;22.63;;;10.03;;
71298;SDS011;59083;47.974;21.722;2022-10-31T03:58:06;20.50;;;9.27;;
71298;SDS011;59083;47.974;21.722;2022-10-31T04:01:11;23.52;;;9.95;;
71298;SDS011;59083;47.974;21.722;2022-10-31T04:04:18;22.33;;;9.45;;
71298;SDS011;59083;47.974;21.722;2022-10-31T04:07:23;24.40;;;9.45;;
71298;SDS011;59083;47.974;21.722;2022-10-31T04:10:29;24.43;;;9.43;;
71298;SDS011;59083;47.974;21.722;2022-10-31T04:13:32;22.77;;;10.07;;
71298;SDS011;59083;47.974;21.722;2022-10-31T04:16:39;22.50;;;10.15;;
71298;SDS011;59083;47.974;21.722;2022-10-31T04:19:43;23.48;;;9.63;;
71298;SDS011;59083;47.974;21.722;2022-10-31T04:22:44;24.95;;;10.32;;
71298;SDS011;59083;47.974;21.722;2022-10-31T04:25:45;21.67;;;10.27;;
71298;SDS011;59083;47.974;21.722;2022-10-31T04:28:47;23.62;;;10.93;;
71298;SDS011;59083;47.974;21.722;2022-10-31T04:31:48;22.67;;;10.35;;
71298;SDS011;59083;47.974;21.722;2022-10-31T04:34:49;21.65;;;9.93;;
71298;SDS011;59083;47.974;21.722;2022-10-31T04:37:51;26.08;;;10.50;;
71298;SDS011;59083;47.974;21.722;2022-10-31T04:40:53;23.83;;;10.67;;
71298;SDS011;59083;47.974;21.722;2022-10-31T04:43:55;19.90;;;10.00;;
71298;SDS011;59083;47.974;21.722;2022-10-31T04:46:57;23.83;;;11.23;;
71298;SDS011;59083;47.974;21.722;2022-10-31T04:49:58;24.15;;;10.05;;
71298;SDS011;59083;47.974;21.722;2022-10-31T04:53:00;23.48;;;9.80;;
71298;SDS011;59083;47.974;21.722;2022-10-31T04:56:01;22.77;;;9.87;;
71298;SDS011;59083;47.974;21.722;2022-10-31T04:59:07;22.80;;;9.40;;
71298;SDS011;59083;47.974;21.722;2022-10-31T05:02:09;21.55;;;9.35;;
71298;SDS011;59083;47.974;21.722;2022-10-31T05:05:11;23.83;;;9.82;;
71298;SDS011;59083;47.974;21.722;2022-10-31T05:08:14;25.30;;;9.82;;
71298;SDS011;59083;47.974;21.722;2022-10-31T05:11:16;20.63;;;9.40;;
71298;SDS011;59083;47.974;21.722;2022-10-31T05:14:17;24.80;;;10.07;;
71298;SDS011;59083;47.974;21.722;2022-10-31T05:17:25;22.77;;;9.90;;
71298;SDS011;59083;47.974;21.722;2022-10-31T05:20:28;22.40;;;9.88;;
71298;SDS011;59083;47.974;21.722;2022-10-31T05:23:32;22.80;;;9.52;;
71298;SDS011;59083;47.974;21.722;2022-10-31T05:26:34;19.93;;;9.20;;
71298;SDS011;59083;47.974;21.722;2022-10-31T05:29:35;26.80;;;10.77;;
71298;SDS011;59083;47.974;21.722;2022-10-31T05:32:38;20.88;;;9.35;;
71298;SDS011;59083;47.974;21.722;2022-10-31T05:35:52;22.02;;;9.10;;
71298;SDS011;59083;47.974;21.722;2022-10-31T05:38:53;23.95;;;9.52;;
71298;SDS011;59083;47.974;21.722;2022-10-31T05:41:55;21.93;;;9.53;;
71298;SDS011;59083;47.974;21.722;2022-10-31T05:44:56;23.08;;;9.80;;
71298;SDS011;59083;47.974;21.722;2022-10-31T05:47:58;22.92;;;9.73;;
71298;SDS011;59083;47.974;21.722;2022-10-31T05:51:04;21.08;;;9.18;;
71298;SDS011;59083;47.974;21.722;2022-10-31T05:54:06;23.23;;;9.50;;
71298;SDS011;59083;47.974;21.722;2022-10-31T05:57:07;31.00;;;13.13;;
71298;SDS011;59083;47.974;21.722;2022-10-31T06:00:08;25.40;;;9.50;;
71298;SDS011;59083;47.974;21.722;2022-10-31T06:03:21;21.42;;;9.88;;
71298;SDS011;59083;47.974;21.722;2022-10-31T06:06:23;28.85;;;12.57;;
71298;SDS011;59083;47.974;21.722;2022-10-31T06:09:24;23.42;;;10.18;;
71298;SDS011;59083;47.974;21.722;2022-10-31T06:12:26;21.47;;;10.13;;
71298;SDS011;59083;47.974;21.722;2022-10-31T06:15:30;24.55;;;9.75;;
71298;SDS011;59083;47.974;21.722;2022-10-31T06:18:32;22.05;;;10.45;;
71298;SDS011;59083;47.974;21.722;2022-10-31T06:21:34;25.90;;;11.07;;
71298;SDS011;59083;47.974;21.722;2022-10-31T06:24:35;27.05;;;10.90;;
71298;SDS011;59083;47.974;21.722;2022-10-31T06:27:37;26.57;;;10.27;;
71298;SDS011;59083;47.974;21.722;2022-10-31T06:30:39;23.75;;;10.25;;
71298;SDS011;59083;47.974;21.722;2022-10-31T06:33:40;23.80;;;10.05;;
71298;SDS011;59083;47.974;21.722;2022-10-31T06:36:45;23.00;;;9.98;;
71298;SDS011;59083;47.974;21.722;2022-10-31T06:39:47;22.40;;;10.18;;
71298;SDS011;59083;47.974;21.722;2022-10-31T06:43:07;24.67;;;10.00;;
71298;SDS011;59083;47.974;21.722;2022-10-31T06:46:09;21.20;;;9.88;;
71298;SDS011;59083;47.974;21.722;2022-10-31T06:49:13;20.75;;;9.57;;
71298;SDS011;59083;47.974;21.722;2022-10-31T06:52:14;28.58;;;11.05;;
71298;SDS011;59083;47.974;21.722;2022-10-31T06:55:16;24.40;;;9.43;;
71298;SDS011;59083;47.974;21.722;2022-10-31T06:58:17;20.23;;;9.17;;
71298;SDS011;59083;47.974;21.722;2022-10-31T07:01:19;25.80;;;11.05;;
71298;SDS011;59083;47.974;21.722;2022-10-31T07:04:20;23.08;;;9.73;;
71298;SDS011;59083;47.974;21.722;2022-10-31T07:07:22;20.52;;;9.52;;
71298;SDS011;59083;47.974;21.722;2022-10-31T07:10:25;23.23;;;10.45;;
71298;SDS011;59083;47.974;21.722;2022-10-31T07:13:27;20.50;;;8.70;;
71298;SDS011;59083;47.974;21.722;2022-10-31T07:16:29;22.80;;;9.80;;
71298;SDS011;59083;47.974;21.722;2022-10-31T07:19:31;20.00;;;10.10;;
71298;SDS011;59083;47.974;21.722;2022-10-31T07:22:33;19.98;;;9.15;;
71298;SDS011;59083;47.974;21.722;2022-10-31T07:25:37;23.17;;;9.30;;
71298;SDS011;59083;47.974;21.722;2022-10-31T07:28:39;18.23;;;8.57;;
71298;SDS011;59083;47.974;21.722;2022-10-31T07:31:41;18.77;;;7.82;;
71298;SDS011;59083;47.974;21.722;2022-10-31T07:34:45;20.30;;;8.68;;
71298;SDS011;59083;47.974;21.722;2022-10-31T07:37:47;19.85;;;9.88;;
71298;SDS011;59083;47.974;21.722;2022-10-31T07:40:49;18.92;;;8.20;;
71298;SDS011;59083;47.974;21.722;2022-10-31T07:43:53;19.17;;;8.50;;
71298;SDS011;59083;47.974;21.722;2022-10-31T07:46:56;20.27;;;8.40;;
71298;SDS011;59083;47.974;21.722;2022-10-31T07:50:00;21.52;;;8.77;;
71298;SDS011;59083;47.974;21.722;2022-10-31T07:53:12;21.02;;;8.82;;
71298;SDS011;59083;47.974;21.722;2022-10-31T07:56:16;23.12;;;9.93;;
71298;SDS011;59083;47.974;21.722;2022-10-31T07:59:17;21.13;;;9.87;;
71298;SDS011;59083;47.974;21.722;2022-10-31T08:02:18;18.85;;;9.55;;
71298;SDS011;59083;47.974;21.722;2022-10-31T08:05:23;20.90;;;10.30;;
71298;SDS011;59083;47.974;21.722;2022-10-31T08:08:33;20.30;;;8.45;;
71298;SDS011;59083;47.974;21.722;2022-10-31T08:11:34;23.70;;;8.82;;
71298;SDS011;59083;47.974;21.722;2022-10-31T08:14:35;21.30;;;9.53;;
71298;SDS011;59083;47.974;21.722;2022-10-31T08:17:37;18.12;;;8.55;;
71298;SDS011;59083;47.974;21.722;2022-10-31T08:20:39;20.92;;;8.75;;
71298;SDS011;59083;47.974;21.722;2022-10-31T08:23:41;19.35;;;8.75;;
71298;SDS011;59083;47.974;21.722;2022-10-31T08:26:42;21.33;;;9.15;;
71298;SDS011;59083;47.974;21.722;2022-10-31T08:29:44;19.10;;;8.67;;
71298;SDS011;59083;47.974;21.722;2022-10-31T08:32:47;20.02;;;8.20;;
71298;SDS011;59083;47.974;21.722;2022-10-31T08:35:58;20.92;;;9.45;;
71298;SDS011;59083;47.974;21.722;2022-10-31T08:39:03;19.52;;;9.15;;
71298;SDS011;59083;47.974;21.722;2022-10-31T08:42:04;21.60;;;9.23;;
71298;SDS011;59083;47.974;21.722;2022-10-31T08:45:06;20.60;;;8.63;;
71298;SDS011;59083;47.974;21.722;2022-10-31T08:48:14;17.45;;;8.25;;
71298;SDS011;59083;47.974;21.722;2022-10-31T08:51:16;15.82;;;7.95;;
71298;SDS011;59083;47.974;21.722;2022-10-31T08:54:17;17.37;;;8.15;;
71298;SDS011;59083;47.974;21.722;2022-10-31T08:57:20;19.42;;;8.82;;
71298;SDS011;59083;47.974;21.722;2022-10-31T09:00:21;21.10;;;8.23;;
71298;SDS011;59083;47.974;21.722;2022-10-31T09:03:29;21.12;;;8.40;;
71298;SDS011;59083;47.974;21.722;2022-10-31T09:06:31;19.45;;;8.23;;
71298;SDS011;59083;47.974;21.722;2022-10-31T09:09:33;19.20;;;7.90;;
71298;SDS011;59083;47.974;21.722;2022-10-31T09:12:35;16.23;;;8.07;;
71298;SDS011;59083;47.974;21.722;2022-10-31T09:15:39;17.33;;;7.23;;
71298;SDS011;59083;47.974;21.722;2022-10-31T09:18:43;14.23;;;6.50;;
71298;SDS011;59083;47.974;21.722;2022-10-31T09:21:44;18.10;;;7.25;;
71298;SDS011;59083;47.974;21.722;2022-10-31T09:24:46;15.57;;;7.03;;
71298;SDS011;59083;47.974;21.722;2022-10-31T09:27:47;16.48;;;7.20;;
71298;SDS011;59083;47.974;21.722;2022-10-31T09:30:50;17.77;;;7.50;;
71298;SDS011;59083;47.974;21.722;2022-10-31T09:33:53;15.18;;;6.95;;
71298;SDS011;59083;47.974;21.722;2022-10-31T09:36:57;15.02;;;6.25;;
71298;SDS011;59083;47.974;21.722;2022-10-31T09:39:58;13.32;;;6.03;;
71298;SDS011;59083;47.974;21.722;2022-10-31T09:49:28;13.85;;;5.75;;
71298;SDS011;59083;47.974;21.722;2022-10-31T09:52:43;14.80;;;5.78;;
71298;SDS011;59083;47.974;21.722;2022-10-31T09:55:52;16.92;;;6.53;;
71298;SDS011;59083;47.974;21.722;2022-10-31T09:58:56;14.30;;;5.57;;
71298;SDS011;59083;47.974;21.722;2022-10-31T10:05:19;12.77;;;5.53;;
71298;SDS011;59083;47.974;21.722;2022-10-31T10:08:26;13.05;;;5.90;;
71298;SDS011;59083;47.974;21.722;2022-10-31T10:21:48;12.98;;;6.05;;
71298;SDS011;59083;47.974;21.722;2022-10-31T10:25:09;12.68;;;6.12;;
71298;SDS011;59083;47.974;21.722;2022-10-31T10:28:33;12.93;;;6.35;;
71298;SDS011;59083;47.974;21.722;2022-10-31T10:31:40;15.63;;;6.55;;
71298;SDS011;59083;47.974;21.722;2022-10-31T10:34:50;11.90;;;6.03;;
71298;SDS011;59083;47.974;21.722;2022-10-31T10:38:03;14.10;;;5.70;;
71298;SDS011;59083;47.974;21.722;2022-10-31T10:41:14;16.95;;;6.75;;
71298;SDS011;59083;47.974;21.722;2022-10-31T10:44:18;13.15;;;6.00;;
71298;SDS011;59083;47.974;21.722;2022-10-31T10:47:20;14.52;;;6.12;;
71298;SDS011;59083;47.974;21.722;2022-10-31T10:50:41;13.50;;;6.23;;
71298;SDS011;59083;47.974;21.722;2022-10-31T11:00:59;15.93;;;6.40;;
71298;SDS011;59083;47.974;21.722;2022-10-31T11:04:01;13.52;;;6.62;;
71298;SDS011;59083;47.974;21.722;2022-10-31T11:07:07;15.83;;;7.10;;
71298;SDS011;59083;47.974;21.722;2022-10-31T11:10:14;15.40;;;6.80;;
71298;SDS011;59083;47.974;21.722;2022-10-31T11:13:22;14.87;;;7.18;;
71298;SDS011;59083;47.974;21.722;2022-10-31T11:19:31;15.77;;;7.12;;
71298;SDS011;59083;47.974;21.722;2022-10-31T11:22:32;14.13;;;6.50;;
71298;SDS011;59083;47.974;21.722;2022-10-31T11:25:33;17.35;;;7.85;;
71298;SDS011;59083;47.974;21.722;2022-10-31T11:28:35;15.75;;;7.20;;
71298;SDS011;59083;47.974;21.722;2022-10-31T11:31:36;15.60;;;7.35;;
71298;SDS011;59083;47.974;21.722;2022-10-31T11:34:42;13.93;;;7.05;;
71298;SDS011;59083;47.974;21.722;2022-10-31T11:37:46;16.43;;;7.20;;
71298;SDS011;59083;47.974;21.722;2022-10-31T11:40:56;14.25;;;6.95;;
71298;SDS011;59083;47.974;21.722;2022-10-31T11:44:03;14.23;;;6.37;;
71298;SDS011;59083;47.974;21.722;2022-10-31T11:47:12;14.02;;;6.62;;
71298;SDS011;59083;47.974;21.722;2022-10-31T11:50:21;14.82;;;7.68;;
71298;SDS011;59083;47.974;21.722;2022-10-31T11:53:29;14.33;;;6.70;;
71298;SDS011;59083;47.974;21.722;2022-10-31T11:56:40;14.20;;;6.50;;
71298;SDS011;59083;47.974;21.722;2022-10-31T11:59:50;14.43;;;7.22;;
71298;SDS011;59083;47.974;21.722;2022-10-31T12:03:04;16.40;;;7.25;;
71298;SDS011;59083;47.974;21.722;2022-10-31T12:06:07;15.65;;;6.80;;
71298;SDS011;59083;47.974;21.722;2022-10-31T12:09:22;14.50;;;6.83;;
71298;SDS011;59083;47.974;21.722;2022-10-31T12:12:31;15.35;;;7.40;;
71298;SDS011;59083;47.974;21.722;2022-10-31T12:15:42;13.50;;;6.87;;
71298;SDS011;59083;47.974;21.722;2022-10-31T12:21:58;14.93;;;7.20;;
71298;SDS011;59083;47.974;21.722;2022-10-31T12:25:15;15.13;;;6.57;;
71298;SDS011;59083;47.974;21.722;2022-10-31T12:52:08;15.20;;;7.20;;
71298;SDS011;59083;47.974;21.722;2022-10-31T12:55:31;14.75;;;7.68;;
71298;SDS011;59083;47.974;21.722;2022-10-31T12:58:53;14.10;;;6.63;;
71298;SDS011;59083;47.974;21.722;2022-10-31T13:02:02;16.35;;;8.00;;
71298;SDS011;59083;47.974;21.722;2022-10-31T13:08:42;14.23;;;7.20;;
71298;SDS011;59083;47.974;21.722;2022-10-31T13:12:04;17.20;;;7.22;;
71298;SDS011;59083;47.974;21.722;2022-10-31T13:22:35;15.63;;;7.40;;
71298;SDS011;59083;47.974;21.722;2022-10-31T13:25:39;17.15;;;7.32;;
71298;SDS011;59083;47.974;21.722;2022-10-31T13:28:54;15.65;;;7.45;;
71298;SDS011;59083;47.974;21.722;2022-10-31T13:32:18;18.93;;;8.43;;
71298;SDS011;59083;47.974;21.722;2022-10-31T13:45:06;20.12;;;8.65;;
71298;SDS011;59083;47.974;21.722;2022-10-31T13:51:24;18.62;;;7.72;;
71298;SDS011;59083;47.974;21.722;2022-10-31T13:54:32;18.08;;;7.65;;
71298;SDS011;59083;47.974;21.722;2022-10-31T13:57:38;17.62;;;7.25;;
71298;SDS011;59083;47.974;21.722;2022-10-31T14:00:43;17.23;;;7.55;;
71298;SDS011;59083;47.974;21.722;2022-10-31T14:03:46;18.33;;;7.60;;
71298;SDS011;59083;47.974;21.722;2022-10-31T14:07:07;17.17;;;7.85;;
71298;SDS011;59083;47.974;21.722;2022-10-31T14:16:34;17.50;;;7.70;;
71298;SDS011;59083;47.974;21.722;2022-10-31T14:19:55;17.30;;;7.77;;
71298;SDS011;59083;47.974;21.722;2022-10-31T14:22:58;20.17;;;7.93;;
71298;SDS011;59083;47.974;21.722;2022-10-31T14:29:32;16.42;;;7.15;;
71298;SDS011;59083;47.974;21.722;2022-10-31T14:32:34;20.58;;;7.95;;
71298;SDS011;59083;47.974;21.722;2022-10-31T14:49:33;20.65;;;7.72;;
71298;SDS011;59083;47.974;21.722;2022-10-31T14:52:46;20.53;;;7.87;;
71298;SDS011;59083;47.974;21.722;2022-10-31T14:55:51;20.55;;;8.15;;
71298;SDS011;59083;47.974;21.722;2022-10-31T14:58:55;15.88;;;7.97;;
71298;SDS011;59083;47.974;21.722;2022-10-31T15:02:00;22.05;;;8.23;;
71298;SDS011;59083;47.974;21.722;2022-10-31T15:05:10;18.90;;;8.23;;
71298;SDS011;59083;47.974;21.722;2022-10-31T15:08:31;20.70;;;8.07;;
71298;SDS011;59083;47.974;21.722;2022-10-31T15:11:37;19.30;;;7.90;;
71298;SDS011;59083;47.974;21.722;2022-10-31T15:14:38;20.30;;;8.20;;
71298;SDS011;59083;47.974;21.722;2022-10-31T15:17:41;19.35;;;8.55;;
71298;SDS011;59083;47.974;21.722;2022-10-31T15:20:46;21.92;;;8.93;;
71298;SDS011;59083;47.974;21.722;2022-10-31T15:23:47;21.27;;;8.80;;
71298;SDS011;59083;47.974;21.722;2022-10-31T15:26:52;21.62;;;9.02;;
71298;SDS011;59083;47.974;21.722;2022-10-31T15:29:55;19.37;;;8.10;;
71298;SDS011;59083;47.974;21.722;2022-10-31T15:32:57;19.98;;;8.15;;
71298;SDS011;59083;47.974;21.722;2022-10-31T15:35:59;20.73;;;9.15;;
71298;SDS011;59083;47.974;21.722;2022-10-31T15:39:02;19.87;;;8.53;;
71298;SDS011;59083;47.974;21.722;2022-10-31T15:42:03;20.17;;;8.57;;
71298;SDS011;59083;47.974;21.722;2022-10-31T15:45:13;21.30;;;8.93;;
71298;SDS011;59083;47.974;21.722;2022-10-31T15:48:21;22.10;;;8.82;;
71298;SDS011;59083;47.974;21.722;2022-10-31T15:51:25;20.02;;;8.73;;
71298;SDS011;59083;47.974;21.722;2022-10-31T15:54:28;20.60;;;8.83;;
71298;SDS011;59083;47.974;21.722;2022-10-31T15:57:29;19.60;;;8.90;;
71298;SDS011;59083;47.974;21.722;2022-10-31T16:00:33;19.75;;;8.52;;
71298;SDS011;59083;47.974;21.722;2022-10-31T16:03:35;19.65;;;8.48;;
71298;SDS011;59083;47.974;21.722;2022-10-31T16:06:36;19.95;;;8.82;;
71298;SDS011;59083;47.974;21.722;2022-10-31T16:09:48;18.70;;;8.47;;
71298;SDS011;59083;47.974;21.722;2022-10-31T16:12:53;19.52;;;8.10;;
71298;SDS011;59083;47.974;21.722;2022-10-31T16:16:02;24.20;;;8.50;;
71298;SDS011;59083;47.974;21.722;2022-10-31T16:19:05;26.42;;;10.65;;
71298;SDS011;59083;47.974;21.722;2022-10-31T16:22:28;21.95;;;9.10;;
71298;SDS011;59083;47.974;21.722;2022-10-31T16:25:36;20.67;;;8.57;;
71298;SDS011;59083;47.974;21.722;2022-10-31T16:28:49;19.23;;;9.02;;
71298;SDS011;59083;47.974;21.722;2022-10-31T16:31:52;22.80;;;9.63;;
71298;SDS011;59083;47.974;21.722;2022-10-31T16:35:02;23.95;;;9.30;;
71298;SDS011;59083;47.974;21.722;2022-10-31T16:38:25;19.83;;;8.82;;
71298;SDS011;59083;47.974;21.722;2022-10-31T16:41:27;20.43;;;9.00;;
71298;SDS011;59083;47.974;21.722;2022-10-31T16:44:29;23.33;;;9.90;;
71298;SDS011;59083;47.974;21.722;2022-10-31T16:47:30;21.83;;;9.82;;
71298;SDS011;59083;47.974;21.722;2022-10-31T16:50:31;20.30;;;9.57;;
71298;SDS011;59083;47.974;21.722;2022-10-31T16:53:33;22.40;;;10.43;;
71298;SDS011;59083;47.974;21.722;2022-10-31T16:56:34;26.23;;;9.97;;
71298;SDS011;59083;47.974;21.722;2022-10-31T16:59:38;22.05;;;9.60;;
71298;SDS011;59083;47.974;21.722;2022-10-31T17:02:39;20.20;;;9.65;;
71298;SDS011;59083;47.974;21.722;2022-10-31T17:05:40;22.50;;;9.57;;
71298;SDS011;59083;47.974;21.722;2022-10-31T17:08:41;21.98;;;9.80;;
71298;SDS011;59083;47.974;21.722;2022-10-31T17:11:45;24.40;;;10.27;;
71298;SDS011;59083;47.974;21.722;2022-10-31T17:14:48;23.77;;;10.57;;
71298;SDS011;59083;47.974;21.722;2022-10-31T17:17:52;26.27;;;10.35;;
71298;SDS011;59083;47.974;21.722;2022-10-31T17:20:55;26.10;;;11.23;;
71298;SDS011;59083;47.974;21.722;2022-10-31T17:23:59;27.33;;;11.20;;
71298;SDS011;59083;47.974;21.722;2022-10-31T17:27:00;25.17;;;10.60;;
71298;SDS011;59083;47.974;21.722;2022-10-31T17:30:01;26.50;;;11.18;;
71298;SDS011;59083;47.974;21.722;2022-10-31T17:33:03;30.12;;;10.95;;
71298;SDS011;59083;47.974;21.722;2022-10-31T17:36:04;26.83;;;11.48;;
71298;SDS011;59083;47.974;21.722;2022-10-31T17:39:06;27.03;;;11.77;;
71298;SDS011;59083;47.974;21.722;2022-10-31T17:42:09;24.50;;;10.97;;
71298;SDS011;59083;47.974;21.722;2022-10-31T17:45:10;25.45;;;11.48;;
71298;SDS011;59083;47.974;21.722;2022-10-31T17:48:13;24.95;;;11.00;;
71298;SDS011;59083;47.974;21.722;2022-10-31T17:51:14;24.92;;;10.50;;
71298;SDS011;59083;47.974;21.722;2022-10-31T17:54:15;28.77;;;11.47;;
71298;SDS011;59083;47.974;21.722;2022-10-31T17:57:18;28.53;;;11.77;;
71298;SDS011;59083;47.974;21.722;2022-10-31T18:00:20;26.12;;;11.70;;
71298;SDS011;59083;47.974;21.722;2022-10-31T18:03:24;29.12;;;12.20;;
71298;SDS011;59083;47.974;21.722;2022-10-31T18:06:26;25.15;;;10.82;;
71298;SDS011;59083;47.974;21.722;2022-10-31T18:09:27;24.77;;;11.33;;
71298;SDS011;59083;47.974;21.722;2022-10-31T18:12:28;30.43;;;10.90;;
71298;SDS011;59083;47.974;21.722;2022-10-31T18:15:32;27.90;;;10.85;;
71298;SDS011;59083;47.974;21.722;2022-10-31T18:18:33;31.45;;;12.07;;
71298;SDS011;59083;47.974;21.722;2022-10-31T18:21:34;30.00;;;11.43;;
71298;SDS011;59083;47.974;21.722;2022-10-31T18:24:35;31.70;;;11.90;;
71298;SDS011;59083;47.974;21.722;2022-10-31T18:27:37;28.00;;;10.53;;
71298;SDS011;59083;47.974;21.722;2022-10-31T18:30:38;29.27;;;11.50;;
71298;SDS011;59083;47.974;21.722;2022-10-31T18:33:41;27.23;;;11.60;;
71298;SDS011;59083;47.974;21.722;2022-10-31T18:36:42;29.02;;;11.02;;
71298;SDS011;59083;47.974;21.722;2022-10-31T18:39:44;28.53;;;11.27;;
71298;SDS011;59083;47.974;21.722;2022-10-31T18:42:45;26.50;;;11.00;;
71298;SDS011;59083;47.974;21.722;2022-10-31T18:45:47;29.35;;;11.90;;
71298;SDS011;59083;47.974;21.722;2022-10-31T18:48:48;27.15;;;11.55;;
71298;SDS011;59083;47.974;21.722;2022-10-31T18:51:49;30.33;;;11.55;;
71298;SDS011;59083;47.974;21.722;2022-10-31T18:54:51;26.53;;;11.70;;
71298;SDS011;59083;47.974;21.722;2022-10-31T18:57:52;26.43;;;11.43;;
71298;SDS011;59083;47.974;21.722;2022-10-31T19:00:54;29.50;;;12.52;;
71298;SDS011;59083;47.974;21.722;2022-10-31T19:03:56;29.50;;;12.57;;
71298;SDS011;59083;47.974;21.722;2022-10-31T19:06:58;28.23;;;11.82;;
71298;SDS011;59083;47.974;21.722;2022-10-31T19:10:00;25.67;;;10.83;;
71298;SDS011;59083;47.974;21.722;2022-10-31T19:13:01;25.17;;;11.17;;
71298;SDS011;59083;47.974;21.722;2022-10-31T19:16:07;26.55;;;11.32;;
71298;SDS011;59083;47.974;21.722;2022-10-31T19:19:14;26.73;;;10.45;;
71298;SDS011;59083;47.974;21.722;2022-10-31T19:22:15;26.98;;;11.30;;
71298;SDS011;59083;47.974;21.722;2022-10-31T19:25:17;27.13;;;11.80;;
71298;SDS011;59083;47.974;21.722;2022-10-31T19:28:18;30.40;;;12.53;;
71298;SDS011;59083;47.974;21.722;2022-10-31T19:31:19;28.15;;;11.80;;
71298;SDS011;59083;47.974;21.722;2022-10-31T19:34:21;26.77;;;11.45;;
71298;SDS011;59083;47.974;21.722;2022-10-31T19:37:22;29.00;;;12.82;;
71298;SDS011;59083;47.974;21.722;2022-10-31T19:40:23;30.40;;;12.63;;
71298;SDS011;59083;47.974;21.722;2022-10-31T19:43:25;31.33;;;13.30;;
71298;SDS011;59083;47.974;21.722;2022-10-31T19:46:27;29.70;;;12.20;;
71298;SDS011;59083;47.974;21.722;2022-10-31T19:49:28;34.63;;;12.88;;
71298;SDS011;59083;47.974;21.722;2022-10-31T19:52:33;28.60;;;13.00;;
71298;SDS011;59083;47.974;21.722;2022-10-31T19:55:38;29.10;;;12.43;;
71298;SDS011;59083;47.974;21.722;2022-10-31T19:58:40;29.33;;;12.10;;